sensor_id;sensor_type;location;lat;lon;timestamp;pressure;altitude;pressure_sealevel;temperature;humidity
50226;BME280;36113;50.742;6.432;2022-10-16T00:00:27;147974.88;;;12.18;100.00
50226;BME280;36113;50.742;6.432;2022-10-16T00:02:52;147974.88;;;12.18;100.00
50226;BME280;36113;50.742;6.432;2022-10-16T00:05:17;147973.63;;;12.18;100.00
50226;BME280;36113;50.742;6.432;2022-10-16T00:07:43;147964.88;;;12.14;100.00
50226;BME280;36113;50.742;6.432;2022-10-16T00:10:08;148007.50;;;12.32;100.00
50226;BME280;36113;50.742;6.432;2022-10-16T00:12:33;148017.50;;;12.36;100.00
50226;BME280;36113;50.742;6.432;2022-10-16T00:14:59;148016.28;;;12.35;100.00
50226;BME280;36113;50.742;6.432;2022-10-16T00:17:24;148017.50;;;12.36;100.00
50226;BME280;36113;50.742;6.432;2022-10-16T00:19:49;147999.97;;;12.29;100.00
50226;BME280;36113;50.742;6.432;2022-10-16T00:22:15;148016.28;;;12.35;100.00
50226;BME280;36113;50.742;6.432;2022-10-16T00:24:40;147976.16;;;12.19;100.00
50226;BME280;36113;50.742;6.432;2022-10-16T00:27:05;147992.47;;;12.26;100.00
50226;BME280;36113;50.742;6.432;2022-10-16T00:29:30;147993.72;;;12.26;100.00
50226;BME280;36113;50.742;6.432;2022-10-16T00:31:56;147951.09;;;12.09;100.00
50226;BME280;36113;50.742;6.432;2022-10-16T00:34:21;147954.84;;;12.10;100.00
50226;BME280;36113;50.742;6.432;2022-10-16T00:36:46;147949.81;;;12.08;100.00
50226;BME280;36113;50.742;6.432;2022-10-16T00:39:12;147909.69;;;11.92;100.00
50226;BME280;36113;50.742;6.432;2022-10-16T00:41:37;147934.78;;;12.02;100.00
50226;BME280;36113;50.742;6.432;2022-10-16T00:44:04;147943.56;;;12.06;100.00
50226;BME280;36113;50.742;6.432;2022-10-16T00:46:49;147919.72;;;11.96;100.00
50226;BME280;36113;50.742;6.432;2022-10-16T00:49:17;147902.13;;;11.89;100.00
50226;BME280;36113;50.742;6.432;2022-10-16T00:51:52;147885.81;;;11.82;100.00
50226;BME280;36113;50.742;6.432;2022-10-16T00:54:25;147883.34;;;11.81;100.00
50226;BME280;36113;50.742;6.432;2022-10-16T00:56:51;147873.28;;;11.77;100.00
50226;BME280;36113;50.742;6.432;2022-10-16T00:59:18;147885.81;;;11.82;100.00
50226;BME280;36113;50.742;6.432;2022-10-16T01:01:45;147889.59;;;11.83;100.00
50226;BME280;36113;50.742;6.432;2022-10-16T01:04:10;147867.03;;;11.74;100.00
50226;BME280;36113;50.742;6.432;2022-10-16T01:06:45;147904.66;;;11.90;100.00
50226;BME280;36113;50.742;6.432;2022-10-16T01:09:33;147913.47;;;11.93;100.00
50226;BME280;36113;50.742;6.432;2022-10-16T01:12:06;147926.00;;;11.98;100.00
50226;BME280;36113;50.742;6.432;2022-10-16T01:22:25;147904.66;;;11.90;100.00
50226;BME280;36113;50.742;6.432;2022-10-16T01:24:55;147880.81;;;11.80;100.00
50226;BME280;36113;50.742;6.432;2022-10-16T01:27:27;147917.22;;;11.95;100.00
50226;BME280;36113;50.742;6.432;2022-10-16T01:30:04;147890.81;;;11.84;100.00
50226;BME280;36113;50.742;6.432;2022-10-16T01:32:46;147900.88;;;11.88;100.00
50226;BME280;36113;50.742;6.432;2022-10-16T01:35:21;147922.25;;;11.97;100.00
50226;BME280;36113;50.742;6.432;2022-10-16T01:37:58;147922.25;;;11.97;100.00
50226;BME280;36113;50.742;6.432;2022-10-16T01:40:26;147929.78;;;12.00;100.00
50226;BME280;36113;50.742;6.432;2022-10-16T01:42:56;147872.03;;;11.76;100.00
50226;BME280;36113;50.742;6.432;2022-10-16T01:45:25;147885.81;;;11.82;100.00
50226;BME280;36113;50.742;6.432;2022-10-16T01:47:53;147943.56;;;12.06;100.00
50226;BME280;36113;50.742;6.432;2022-10-16T01:50:20;147917.22;;;11.95;100.00
50226;BME280;36113;50.742;6.432;2022-10-16T01:52:48;147964.88;;;12.14;100.00
50226;BME280;36113;50.742;6.432;2022-10-16T01:55:17;147946.03;;;12.07;100.00
50226;BME280;36113;50.742;6.432;2022-10-16T01:57:47;147937.25;;;12.03;100.00
50226;BME280;36113;50.742;6.432;2022-10-16T02:00:17;147979.94;;;12.21;100.00
50226;BME280;36113;50.742;6.432;2022-10-16T02:02:47;147892.13;;;11.85;100.00
50226;BME280;36113;50.742;6.432;2022-10-16T02:05:28;147983.66;;;12.22;100.00
50226;BME280;36113;50.742;6.432;2022-10-16T02:07:54;147918.47;;;11.95;100.00
50226;BME280;36113;50.742;6.432;2022-10-16T02:10:20;147981.19;;;12.21;100.00
50226;BME280;36113;50.742;6.432;2022-10-16T02:13:24;147967.41;;;12.15;100.00
50226;BME280;36113;50.742;6.432;2022-10-16T02:15:41;147983.66;;;12.22;100.00
50226;BME280;36113;50.742;6.432;2022-10-16T02:18:07;147993.72;;;12.26;100.00
50226;BME280;36113;50.742;6.432;2022-10-16T02:20:51;147981.19;;;12.21;100.00
50226;BME280;36113;50.742;6.432;2022-10-16T02:23:25;147969.88;;;12.16;100.00
50226;BME280;36113;50.742;6.432;2022-10-16T02:25:56;147919.72;;;11.96;100.00
50226;BME280;36113;50.742;6.432;2022-10-16T02:28:37;147967.41;;;12.15;100.00
50226;BME280;36113;50.742;6.432;2022-10-16T02:31:04;147942.31;;;12.05;100.00
50226;BME280;36113;50.742;6.432;2022-10-16T02:33:33;147958.56;;;12.12;100.00
50226;BME280;36113;50.742;6.432;2022-10-16T02:36:00;147962.34;;;12.13;100.00
50226;BME280;36113;50.742;6.432;2022-10-16T02:38:26;147944.78;;;12.06;100.00
50226;BME280;36113;50.742;6.432;2022-10-16T02:40:54;147932.25;;;12.01;100.00
50226;BME280;36113;50.742;6.432;2022-10-16T02:43:20;147893.34;;;11.85;100.00
50226;BME280;36113;50.742;6.432;2022-10-16T02:45:45;147931.00;;;12.00;100.00
50226;BME280;36113;50.742;6.432;2022-10-16T02:48:10;147922.25;;;11.97;100.00
50226;BME280;36113;50.742;6.432;2022-10-16T02:50:35;147923.47;;;11.97;100.00
50226;BME280;36113;50.742;6.432;2022-10-16T02:53:01;147919.72;;;11.96;100.00
50226;BME280;36113;50.742;6.432;2022-10-16T02:55:27;147888.34;;;11.83;100.00
50226;BME280;36113;50.742;6.432;2022-10-16T02:57:53;147905.88;;;11.90;100.00
50226;BME280;36113;50.742;6.432;2022-10-16T03:00:19;147879.56;;;11.79;100.00
50226;BME280;36113;50.742;6.432;2022-10-16T03:02:44;147867.03;;;11.74;100.00
50226;BME280;36113;50.742;6.432;2022-10-16T03:05:10;147877.03;;;11.78;100.00
50226;BME280;36113;50.742;6.432;2022-10-16T03:07:35;147895.84;;;11.86;100.00
50226;BME280;36113;50.742;6.432;2022-10-16T03:10:01;147888.34;;;11.83;100.00
50226;BME280;36113;50.742;6.432;2022-10-16T03:12:27;147882.06;;;11.80;100.00
50226;BME280;36113;50.742;6.432;2022-10-16T03:14:52;147892.13;;;11.85;100.00
50226;BME280;36113;50.742;6.432;2022-10-16T03:17:18;147885.81;;;11.82;100.00
50226;BME280;36113;50.742;6.432;2022-10-16T03:19:43;147884.56;;;11.81;100.00
50226;BME280;36113;50.742;6.432;2022-10-16T03:22:08;147867.03;;;11.74;100.00
50226;BME280;36113;50.742;6.432;2022-10-16T03:24:34;147880.81;;;11.80;100.00
50226;BME280;36113;50.742;6.432;2022-10-16T03:26:59;147864.50;;;11.73;100.00
50226;BME280;36113;50.742;6.432;2022-10-16T03:29:25;147877.03;;;11.78;100.00
50226;BME280;36113;50.742;6.432;2022-10-16T03:31:51;147894.59;;;11.86;100.00
50226;BME280;36113;50.742;6.432;2022-10-16T03:34:16;147878.28;;;11.79;100.00
50226;BME280;36113;50.742;6.432;2022-10-16T03:36:41;147883.34;;;11.81;100.00
50226;BME280;36113;50.742;6.432;2022-10-16T03:39:06;147816.91;;;11.54;100.00
50226;BME280;36113;50.742;6.432;2022-10-16T03:41:32;147879.56;;;11.79;100.00
50226;BME280;36113;50.742;6.432;2022-10-16T03:43:57;147900.88;;;11.88;100.00
50226;BME280;36113;50.742;6.432;2022-10-16T03:46:22;147855.75;;;11.70;100.00
50226;BME280;36113;50.742;6.432;2022-10-16T03:48:48;147892.13;;;11.85;100.00
50226;BME280;36113;50.742;6.432;2022-10-16T03:51:13;147874.53;;;11.77;100.00
50226;BME280;36113;50.742;6.432;2022-10-16T03:53:38;147885.81;;;11.82;100.00
50226;BME280;36113;50.742;6.432;2022-10-16T03:56:04;147883.34;;;11.81;100.00
50226;BME280;36113;50.742;6.432;2022-10-16T03:58:29;147862.00;;;11.72;100.00
50226;BME280;36113;50.742;6.432;2022-10-16T04:00:55;147825.66;;;11.57;100.00
50226;BME280;36113;50.742;6.432;2022-10-16T04:03:20;147835.69;;;11.61;100.00
50226;BME280;36113;50.742;6.432;2022-10-16T04:05:46;147790.53;;;11.43;100.00
50226;BME280;36113;50.742;6.432;2022-10-16T04:08:11;147754.22;;;11.28;100.00
50226;BME280;36113;50.742;6.432;2022-10-16T04:10:37;147798.06;;;11.46;100.00
50226;BME280;36113;50.742;6.432;2022-10-16T04:13:02;147784.31;;;11.40;100.00
50226;BME280;36113;50.742;6.432;2022-10-16T04:15:28;147789.31;;;11.42;100.00
50226;BME280;36113;50.742;6.432;2022-10-16T04:17:53;147793.06;;;11.44;100.00
50226;BME280;36113;50.742;6.432;2022-10-16T04:20:18;147808.13;;;11.50;100.00
50226;BME280;36113;50.742;6.432;2022-10-16T04:22:44;147791.81;;;11.43;100.00
50226;BME280;36113;50.742;6.432;2022-10-16T04:25:10;147801.84;;;11.48;100.00
50226;BME280;36113;50.742;6.432;2022-10-16T04:27:37;147814.38;;;11.53;100.00
50226;BME280;36113;50.742;6.432;2022-10-16T04:30:03;147820.66;;;11.55;100.00
50226;BME280;36113;50.742;6.432;2022-10-16T04:32:29;147814.38;;;11.53;100.00
50226;BME280;36113;50.742;6.432;2022-10-16T04:34:54;147780.53;;;11.39;100.00
50226;BME280;36113;50.742;6.432;2022-10-16T04:37:23;147791.81;;;11.43;100.00
50226;BME280;36113;50.742;6.432;2022-10-16T04:39:49;147798.06;;;11.46;100.00
50226;BME280;36113;50.742;6.432;2022-10-16T04:42:14;147765.47;;;11.33;100.00
50226;BME280;36113;50.742;6.432;2022-10-16T04:44:39;147795.59;;;11.45;100.00
50226;BME280;36113;50.742;6.432;2022-10-16T04:47:05;147799.31;;;11.47;100.00
50226;BME280;36113;50.742;6.432;2022-10-16T04:49:30;147831.91;;;11.60;100.00
50226;BME280;36113;50.742;6.432;2022-10-16T04:51:55;147801.84;;;11.48;100.00
50226;BME280;36113;50.742;6.432;2022-10-16T04:54:21;147825.66;;;11.57;100.00
50226;BME280;36113;50.742;6.432;2022-10-16T04:56:46;147829.44;;;11.59;100.00
50226;BME280;36113;50.742;6.432;2022-10-16T04:59:14;147835.69;;;11.61;100.00
50226;BME280;36113;50.742;6.432;2022-10-16T05:01:40;147840.69;;;11.63;100.00
50226;BME280;36113;50.742;6.432;2022-10-16T05:04:05;147830.66;;;11.59;100.00
50226;BME280;36113;50.742;6.432;2022-10-16T05:06:31;147821.91;;;11.56;100.00
50226;BME280;36113;50.742;6.432;2022-10-16T05:08:56;147800.59;;;11.47;100.00
50226;BME280;36113;50.742;6.432;2022-10-16T05:11:21;147798.06;;;11.46;100.00
50226;BME280;36113;50.742;6.432;2022-10-16T05:13:47;147779.28;;;11.38;100.00
50226;BME280;36113;50.742;6.432;2022-10-16T05:16:12;147760.47;;;11.31;100.00
50226;BME280;36113;50.742;6.432;2022-10-16T05:18:37;147821.91;;;11.56;100.00
50226;BME280;36113;50.742;6.432;2022-10-16T05:21:03;147804.34;;;11.49;100.00
50226;BME280;36113;50.742;6.432;2022-10-16T05:23:28;147799.31;;;11.47;100.00
50226;BME280;36113;50.742;6.432;2022-10-16T05:25:57;147786.78;;;11.41;100.00
50226;BME280;36113;50.742;6.432;2022-10-16T05:28:24;147809.38;;;11.51;100.00
50226;BME280;36113;50.742;6.432;2022-10-16T05:30:50;147795.59;;;11.45;100.00
50226;BME280;36113;50.742;6.432;2022-10-16T05:33:16;147804.34;;;11.49;100.00
50226;BME280;36113;50.742;6.432;2022-10-16T05:35:41;147788.06;;;11.42;100.00
50226;BME280;36113;50.742;6.432;2022-10-16T05:38:07;147770.53;;;11.35;100.00
50226;BME280;36113;50.742;6.432;2022-10-16T05:40:32;147835.69;;;11.61;100.00
50226;BME280;36113;50.742;6.432;2022-10-16T05:42:57;147833.19;;;11.60;100.00
50226;BME280;36113;50.742;6.432;2022-10-16T05:45:22;147843.22;;;11.64;100.00
50226;BME280;36113;50.742;6.432;2022-10-16T05:47:48;147854.50;;;11.69;100.00
50226;BME280;36113;50.742;6.432;2022-10-16T05:50:16;147824.38;;;11.57;100.00
50226;BME280;36113;50.742;6.432;2022-10-16T05:52:41;147867.03;;;11.74;100.00
50226;BME280;36113;50.742;6.432;2022-10-16T05:55:07;147834.44;;;11.61;100.00
50226;BME280;36113;50.742;6.432;2022-10-16T05:57:32;147868.28;;;11.75;100.00
50226;BME280;36113;50.742;6.432;2022-10-16T05:59:58;147828.13;;;11.58;100.00
50226;BME280;36113;50.742;6.432;2022-10-16T06:02:23;147823.13;;;11.56;100.00
50226;BME280;36113;50.742;6.432;2022-10-16T06:04:48;147860.75;;;11.72;100.00
50226;BME280;36113;50.742;6.432;2022-10-16T06:07:14;147870.81;;;11.76;100.00
50226;BME280;36113;50.742;6.432;2022-10-16T06:09:39;147859.50;;;11.71;100.00
50226;BME280;36113;50.742;6.432;2022-10-16T06:12:05;147864.50;;;11.73;100.00
50226;BME280;36113;50.742;6.432;2022-10-16T06:14:30;147856.97;;;11.70;100.00
50226;BME280;36113;50.742;6.432;2022-10-16T06:16:55;147856.97;;;11.70;100.00
50226;BME280;36113;50.742;6.432;2022-10-16T06:19:21;147887.06;;;11.82;100.00
50226;BME280;36113;50.742;6.432;2022-10-16T06:21:46;147892.13;;;11.85;100.00
50226;BME280;36113;50.742;6.432;2022-10-16T06:24:11;147915.94;;;11.94;100.00
50226;BME280;36113;50.742;6.432;2022-10-16T06:26:37;147922.25;;;11.97;100.00
50226;BME280;36113;50.742;6.432;2022-10-16T06:29:03;147926.00;;;11.98;100.00
50226;BME280;36113;50.742;6.432;2022-10-16T06:31:29;147918.47;;;11.95;100.00
50226;BME280;36113;50.742;6.432;2022-10-16T06:33:56;147982.41;;;12.22;100.00
50226;BME280;36113;50.742;6.432;2022-10-16T06:36:22;147958.56;;;12.12;100.00
50226;BME280;36113;50.742;6.432;2022-10-16T06:38:48;148006.25;;;12.31;100.00
50226;BME280;36113;50.742;6.432;2022-10-16T06:41:17;148021.28;;;12.37;100.00
50226;BME280;36113;50.742;6.432;2022-10-16T06:43:42;148031.34;;;12.42;100.00
50226;BME280;36113;50.742;6.432;2022-10-16T06:46:11;148010.03;;;12.33;100.00
50226;BME280;36113;50.742;6.432;2022-10-16T06:48:37;148027.56;;;12.40;100.00
50226;BME280;36113;50.742;6.432;2022-10-16T06:53:31;148106.59;;;12.72;100.00
50226;BME280;36113;50.742;6.432;2022-10-16T06:55:56;148112.84;;;12.75;100.00
50226;BME280;36113;50.742;6.432;2022-10-16T06:58:22;148120.41;;;12.78;100.00
50226;BME280;36113;50.742;6.432;2022-10-16T07:00:48;148145.47;;;12.88;100.00
50226;BME280;36113;50.742;6.432;2022-10-16T07:03:14;148150.50;;;12.90;100.00
50226;BME280;36113;50.742;6.432;2022-10-16T07:05:41;148140.47;;;12.86;100.00
50226;BME280;36113;50.742;6.432;2022-10-16T07:08:06;148126.63;;;12.81;100.00
50226;BME280;36113;50.742;6.432;2022-10-16T07:10:32;148145.47;;;12.88;100.00
50226;BME280;36113;50.742;6.432;2022-10-16T07:12:58;148149.25;;;12.90;100.00
50226;BME280;36113;50.742;6.432;2022-10-16T07:15:24;148165.56;;;12.97;100.00
50226;BME280;36113;50.742;6.432;2022-10-16T07:17:50;148191.91;;;13.07;100.00
50226;BME280;36113;50.742;6.432;2022-10-16T07:20:15;148179.34;;;13.02;100.00
50226;BME280;36113;50.742;6.432;2022-10-16T07:22:41;148188.13;;;13.06;100.00
50226;BME280;36113;50.742;6.432;2022-10-16T07:25:06;148183.13;;;13.04;100.00
50226;BME280;36113;50.742;6.432;2022-10-16T07:27:32;148185.66;;;13.05;100.00
50226;BME280;36113;50.742;6.432;2022-10-16T07:29:57;148100.31;;;12.70;100.00
50226;BME280;36113;50.742;6.432;2022-10-16T07:32:22;148171.81;;;12.99;100.00
50226;BME280;36113;50.742;6.432;2022-10-16T07:34:48;148163.03;;;12.95;100.00
50226;BME280;36113;50.742;6.432;2022-10-16T07:37:14;148210.75;;;13.15;100.00
50226;BME280;36113;50.742;6.432;2022-10-16T07:39:39;148120.41;;;12.78;100.00
50226;BME280;36113;50.742;6.432;2022-10-16T07:42:04;148149.25;;;12.90;100.00
50226;BME280;36113;50.742;6.432;2022-10-16T07:44:30;148194.44;;;13.08;100.00
50226;BME280;36113;50.742;6.432;2022-10-16T07:46:55;148178.13;;;13.02;100.00
50226;BME280;36113;50.742;6.432;2022-10-16T07:49:20;148189.38;;;13.06;100.00
50226;BME280;36113;50.742;6.432;2022-10-16T07:51:46;148254.69;;;13.33;100.00
50226;BME280;36113;50.742;6.432;2022-10-16T07:54:11;148277.28;;;13.42;100.00
50226;BME280;36113;50.742;6.432;2022-10-16T07:56:36;148274.78;;;13.41;100.00
50226;BME280;36113;50.742;6.432;2022-10-16T07:59:02;148292.34;;;13.48;100.00
50226;BME280;36113;50.742;6.432;2022-10-16T08:01:27;148346.34;;;13.71;100.00
50226;BME280;36113;50.742;6.432;2022-10-16T08:03:52;148387.78;;;13.87;100.00
50226;BME280;36113;50.742;6.432;2022-10-16T08:06:20;148440.47;;;14.09;100.00
50226;BME280;36113;50.742;6.432;2022-10-16T08:08:46;148479.41;;;14.25;100.00
50226;BME280;36113;50.742;6.432;2022-10-16T08:11:12;148489.47;;;14.29;100.00
50226;BME280;36113;50.742;6.432;2022-10-16T08:13:39;148537.19;;;14.49;100.00
50226;BME280;36113;50.742;6.432;2022-10-16T08:16:04;148576.16;;;14.65;100.00
50226;BME280;36113;50.742;6.432;2022-10-16T08:18:37;148602.56;;;14.75;100.00
50226;BME280;36113;50.742;6.432;2022-10-16T08:21:04;148607.59;;;14.77;100.00
50226;BME280;36113;50.742;6.432;2022-10-16T08:23:30;148667.88;;;15.02;100.00
50226;BME280;36113;50.742;6.432;2022-10-16T08:26:01;148632.72;;;14.88;100.00
50226;BME280;36113;50.742;6.432;2022-10-16T08:28:26;148695.53;;;15.13;100.00
50226;BME280;36113;50.742;6.432;2022-10-16T08:30:52;148713.13;;;15.21;100.00
50226;BME280;36113;50.742;6.432;2022-10-16T08:33:17;148729.47;;;15.27;100.00
50226;BME280;36113;50.742;6.432;2022-10-16T08:35:42;148750.84;;;15.36;100.00
50226;BME280;36113;50.742;6.432;2022-10-16T08:38:08;148747.06;;;15.34;100.00
50226;BME280;36113;50.742;6.432;2022-10-16T08:40:36;148779.75;;;15.48;100.00
50226;BME280;36113;50.742;6.432;2022-10-16T08:51:35;148866.50;;;15.83;100.00
50226;BME280;36113;50.742;6.432;2022-10-16T08:56:41;148909.28;;;16.01;100.00
50226;BME280;36113;50.742;6.432;2022-10-16T08:59:10;148825.00;;;15.66;100.00
50226;BME280;36113;50.742;6.432;2022-10-16T09:01:44;148851.44;;;15.77;100.00
50226;BME280;36113;50.742;6.432;2022-10-16T09:07:03;148895.44;;;15.95;100.00
50226;BME280;36113;50.742;6.432;2022-10-16T09:17:48;148934.44;;;16.11;98.23
50226;BME280;36113;50.742;6.432;2022-10-16T09:23:21;149001.06;;;16.38;95.44
50226;BME280;36113;50.742;6.432;2022-10-16T09:25:49;148980.97;;;16.30;96.48
50226;BME280;36113;50.742;6.432;2022-10-16T09:28:17;149052.66;;;16.59;96.10
50226;BME280;36113;50.742;6.432;2022-10-16T09:30:43;149036.28;;;16.53;95.98
50226;BME280;36113;50.742;6.432;2022-10-16T09:33:10;149075.28;;;16.68;95.33
50226;BME280;36113;50.742;6.432;2022-10-16T09:35:43;149106.75;;;16.81;94.92
50226;BME280;36113;50.742;6.432;2022-10-16T09:38:20;149116.84;;;16.85;92.49
50226;BME280;36113;50.742;6.432;2022-10-16T09:40:46;149125.66;;;16.89;93.15
50226;BME280;36113;50.742;6.432;2022-10-16T09:43:46;149143.25;;;16.96;91.80
50226;BME280;36113;50.742;6.432;2022-10-16T09:46:32;149155.84;;;17.01;88.69
50226;BME280;36113;50.742;6.432;2022-10-16T09:49:03;149157.13;;;17.02;90.22
50226;BME280;36113;50.742;6.432;2022-10-16T09:51:30;149203.69;;;17.21;90.67
50226;BME280;36113;50.742;6.432;2022-10-16T09:54:21;149220.00;;;17.28;89.85
50226;BME280;36113;50.742;6.432;2022-10-16T09:56:46;149168.41;;;17.06;89.40
50226;BME280;36113;50.742;6.432;2022-10-16T09:59:19;149279.19;;;17.52;89.33
50226;BME280;36113;50.742;6.432;2022-10-16T10:01:47;149281.69;;;17.53;86.78
50226;BME280;36113;50.742;6.432;2022-10-16T10:04:13;149284.22;;;17.54;85.30
50226;BME280;36113;50.742;6.432;2022-10-16T10:06:52;149277.91;;;17.51;85.27
50226;BME280;36113;50.742;6.432;2022-10-16T10:09:33;149296.81;;;17.59;85.70
50226;BME280;36113;50.742;6.432;2022-10-16T10:12:03;149345.88;;;17.79;83.65
50226;BME280;36113;50.742;6.432;2022-10-16T10:14:36;149390.00;;;17.97;82.51
50226;BME280;36113;50.742;6.432;2022-10-16T10:19:50;149319.44;;;17.68;81.92
50226;BME280;36113;50.742;6.432;2022-10-16T10:22:43;149290.50;;;17.56;83.80
50226;BME280;36113;50.742;6.432;2022-10-16T10:31:01;149432.81;;;18.14;78.82
50226;BME280;36113;50.742;6.432;2022-10-16T10:33:54;149465.56;;;18.28;77.36
50226;BME280;36113;50.742;6.432;2022-10-16T10:36:32;149468.03;;;18.29;75.28
50226;BME280;36113;50.742;6.432;2022-10-16T10:39:42;149455.44;;;18.24;77.72
50226;BME280;36113;50.742;6.432;2022-10-16T10:42:12;149432.81;;;18.14;76.68
50226;BME280;36113;50.742;6.432;2022-10-16T10:50:25;149444.16;;;18.19;78.46
50226;BME280;36113;50.742;6.432;2022-10-16T10:55:40;149481.94;;;18.34;75.33
50226;BME280;36113;50.742;6.432;2022-10-16T10:58:35;149541.13;;;18.59;75.73
50226;BME280;36113;50.742;6.432;2022-10-16T11:01:45;149591.50;;;18.79;72.79
50226;BME280;36113;50.742;6.432;2022-10-16T11:07:00;149480.63;;;18.34;73.63
50226;BME280;36113;50.742;6.432;2022-10-16T11:09:31;149442.88;;;18.18;73.15
50226;BME280;36113;50.742;6.432;2022-10-16T11:12:02;149401.31;;;18.02;74.57
50226;BME280;36113;50.742;6.432;2022-10-16T11:14:52;149440.38;;;18.17;74.81
50226;BME280;36113;50.742;6.432;2022-10-16T11:19:57;149439.06;;;18.17;75.87
50226;BME280;36113;50.742;6.432;2022-10-16T11:22:48;149450.44;;;18.22;76.29
50226;BME280;36113;50.742;6.432;2022-10-16T11:25:29;149450.44;;;18.22;76.27
50226;BME280;36113;50.742;6.432;2022-10-16T11:28:00;149478.16;;;18.33;77.28
50226;BME280;36113;50.742;6.432;2022-10-16T11:30:34;149413.91;;;18.07;77.07
50226;BME280;36113;50.742;6.432;2022-10-16T11:38:48;149479.41;;;18.33;78.38
50226;BME280;36113;50.742;6.432;2022-10-16T11:47:31;149539.81;;;18.58;78.19
50226;BME280;36113;50.742;6.432;2022-10-16T11:50:17;149538.59;;;18.58;80.03
50226;BME280;36113;50.742;6.432;2022-10-16T11:53:16;149560.00;;;18.66;78.52
50226;BME280;36113;50.742;6.432;2022-10-16T11:55:40;149536.03;;;18.56;78.55
50226;BME280;36113;50.742;6.432;2022-10-16T12:03:51;149519.72;;;18.50;83.58
50226;BME280;36113;50.742;6.432;2022-10-16T12:06:35;149474.38;;;18.31;84.41
50226;BME280;36113;50.742;6.432;2022-10-16T12:09:02;149534.78;;;18.56;86.61
50226;BME280;36113;50.742;6.432;2022-10-16T12:16:57;149563.78;;;18.68;88.54
50226;BME280;36113;50.742;6.432;2022-10-16T12:19:25;149591.50;;;18.79;88.61
50226;BME280;36113;50.742;6.432;2022-10-16T12:21:52;149606.66;;;18.85;88.19
50226;BME280;36113;50.742;6.432;2022-10-16T12:24:38;149634.38;;;18.97;86.77
50226;BME280;36113;50.742;6.432;2022-10-16T12:27:20;149537.34;;;18.57;88.71
50226;BME280;36113;50.742;6.432;2022-10-16T12:29:55;149532.31;;;18.55;88.91
50226;BME280;36113;50.742;6.432;2022-10-16T12:32:39;149498.31;;;18.41;90.50
50226;BME280;36113;50.742;6.432;2022-10-16T12:35:16;149497.00;;;18.41;89.70
50226;BME280;36113;50.742;6.432;2022-10-16T12:37:44;149444.16;;;18.19;91.02
50226;BME280;36113;50.742;6.432;2022-10-16T12:40:15;149498.31;;;18.41;89.83
50226;BME280;36113;50.742;6.432;2022-10-16T12:42:42;149499.56;;;18.42;90.04
50226;BME280;36113;50.742;6.432;2022-10-16T12:45:33;149485.72;;;18.36;89.91
50226;BME280;36113;50.742;6.432;2022-10-16T12:48:01;149436.59;;;18.16;90.18
50226;BME280;36113;50.742;6.432;2022-10-16T12:50:36;149408.88;;;18.05;91.04
50226;BME280;36113;50.742;6.432;2022-10-16T12:53:04;149488.19;;;18.37;90.58
50226;BME280;36113;50.742;6.432;2022-10-16T12:55:57;149450.44;;;18.22;90.64
50226;BME280;36113;50.742;6.432;2022-10-16T12:58:42;149435.34;;;18.15;92.71
50226;BME280;36113;50.742;6.432;2022-10-16T13:04:43;149536.03;;;18.56;89.43
50226;BME280;36113;50.742;6.432;2022-10-16T13:07:37;149565.03;;;18.68;87.75
50226;BME280;36113;50.742;6.432;2022-10-16T13:13:07;149602.88;;;18.84;87.86
50226;BME280;36113;50.742;6.432;2022-10-16T13:15:47;149675.97;;;19.14;88.52
50226;BME280;36113;50.742;6.432;2022-10-16T13:18:23;149698.63;;;19.23;87.25
50226;BME280;36113;50.742;6.432;2022-10-16T13:23:36;149691.06;;;19.20;85.91
50226;BME280;36113;50.742;6.432;2022-10-16T13:26:22;149635.63;;;18.97;87.32
50226;BME280;36113;50.742;6.432;2022-10-16T13:28:51;149544.91;;;18.60;90.29
50226;BME280;36113;50.742;6.432;2022-10-16T13:31:20;149465.56;;;18.28;90.28
50226;BME280;36113;50.742;6.432;2022-10-16T13:33:49;149527.22;;;18.53;90.71
50226;BME280;36113;50.742;6.432;2022-10-16T13:36:23;149508.38;;;18.45;91.92
50226;BME280;36113;50.742;6.432;2022-10-16T13:39:00;149431.56;;;18.14;93.21
50226;BME280;36113;50.742;6.432;2022-10-16T13:41:25;149490.75;;;18.38;93.70
50226;BME280;36113;50.742;6.432;2022-10-16T13:43:52;149481.94;;;18.34;93.44
50226;BME280;36113;50.742;6.432;2022-10-16T13:46:22;149499.56;;;18.42;93.21
50226;BME280;36113;50.742;6.432;2022-10-16T13:48:59;149552.44;;;18.63;93.31
50226;BME280;36113;50.742;6.432;2022-10-16T13:51:26;149558.75;;;18.66;95.18
50226;BME280;36113;50.742;6.432;2022-10-16T13:53:52;149605.41;;;18.85;94.81
50226;BME280;36113;50.742;6.432;2022-10-16T13:56:22;149601.63;;;18.83;93.31
50226;BME280;36113;50.742;6.432;2022-10-16T13:59:04;149635.63;;;18.97;90.35
50226;BME280;36113;50.742;6.432;2022-10-16T14:01:48;149623.03;;;18.92;91.65
50226;BME280;36113;50.742;6.432;2022-10-16T14:04:14;149582.69;;;18.76;93.36
50226;BME280;36113;50.742;6.432;2022-10-16T14:06:46;149532.31;;;18.55;93.54
50226;BME280;36113;50.742;6.432;2022-10-16T14:09:28;149531.03;;;18.54;94.58
50226;BME280;36113;50.742;6.432;2022-10-16T14:14:22;149517.19;;;18.49;94.44
50226;BME280;36113;50.742;6.432;2022-10-16T14:16:49;149458.00;;;18.25;95.99
50226;BME280;36113;50.742;6.432;2022-10-16T14:21:42;149499.56;;;18.42;96.62
50226;BME280;36113;50.742;6.432;2022-10-16T14:24:12;149463.03;;;18.27;96.44
50226;BME280;36113;50.742;6.432;2022-10-16T14:26:44;149498.31;;;18.41;97.15
50226;BME280;36113;50.742;6.432;2022-10-16T14:29:17;149456.75;;;18.24;98.06